createdAt,value
2022-08-17T00:01:00.697Z,14.71
2022-08-17T00:01:57.576Z,14.69
2022-08-17T00:03:04.528Z,14.68
2022-08-17T00:03:57.668Z,14.60
2022-08-17T00:04:56.972Z,14.48
2022-08-17T00:06:02.687Z,14.37
2022-08-17T00:06:57.459Z,14.28
2022-08-17T00:07:57.053Z,14.21
2022-08-17T00:08:59.940Z,14.13
2022-08-17T00:09:57.723Z,14.06
2022-08-17T00:10:57.747Z,13.99
2022-08-17T00:12:41.414Z,13.92
2022-08-17T00:12:57.003Z,13.81
2022-08-17T00:14:01.118Z,13.69
2022-08-17T00:14:56.954Z,13.60
2022-08-17T00:16:00.027Z,13.53
2022-08-17T00:16:57.791Z,13.45
2022-08-17T00:17:57.397Z,13.38
2022-08-17T00:19:06.904Z,13.31
2022-08-17T00:19:57.045Z,13.28
2022-08-17T00:22:31.531Z,13.31
2022-08-17T00:23:05.906Z,13.34
2022-08-17T00:23:56.983Z,13.35
2022-08-17T00:25:57.343Z,13.36
2022-08-17T00:26:57.015Z,13.35
2022-08-17T00:27:56.943Z,13.34
2022-08-17T00:28:57.175Z,13.33
2022-08-17T00:29:57.002Z,13.34
2022-08-17T00:30:57.083Z,13.35
2022-08-17T00:31:56.938Z,13.39
2022-08-17T00:33:11.876Z,13.43
2022-08-17T00:33:56.996Z,13.46
2022-08-17T00:34:56.974Z,13.50
2022-08-17T00:35:58.679Z,13.52
2022-08-17T00:36:56.922Z,13.48
2022-08-17T00:37:57.030Z,13.46
2022-08-17T00:38:56.997Z,13.45
2022-08-17T00:41:57.162Z,13.46
2022-08-17T00:42:57.206Z,13.47
2022-08-17T00:44:00.545Z,13.44
2022-08-17T00:44:57.161Z,13.42
2022-08-17T00:45:58.098Z,13.41
2022-08-17T00:46:57.197Z,13.38
2022-08-17T00:47:56.957Z,13.40
2022-08-17T00:48:57.418Z,13.42
2022-08-17T00:49:57.012Z,13.44
2022-08-17T00:51:02.390Z,13.47
2022-08-17T00:52:11.933Z,13.51
2022-08-17T00:52:59.188Z,13.55
2022-08-17T00:54:07.510Z,13.62
2022-08-17T00:54:57.663Z,13.66
2022-08-17T00:57:03.223Z,13.67
2022-08-17T00:58:00.943Z,13.66
2022-08-17T00:58:57.357Z,13.62
2022-08-17T01:00:02.355Z,13.56
2022-08-17T01:00:57.302Z,13.54
2022-08-17T01:01:58.159Z,13.56
2022-08-17T01:03:03.015Z,13.61
2022-08-17T01:03:59.260Z,13.71
2022-08-17T01:04:57.516Z,13.77
2022-08-17T01:06:01.595Z,13.76
2022-08-17T01:06:58.784Z,13.71
2022-08-17T01:07:57.662Z,13.67
2022-08-17T01:08:59.084Z,13.63
2022-08-17T01:09:57.049Z,13.57
2022-08-17T01:11:02.398Z,13.54
2022-08-17T01:12:57.540Z,13.60
2022-08-17T01:13:57.029Z,13.69
2022-08-17T01:14:56.994Z,13.81
2022-08-17T01:15:58.819Z,13.86
2022-08-17T01:16:57.300Z,13.87
2022-08-17T01:17:56.970Z,13.88
2022-08-17T01:20:59.349Z,13.94
2022-08-17T01:22:07.175Z,14.01
2022-08-17T01:22:57.189Z,14.04
2022-08-17T01:23:57.214Z,14.02
2022-08-17T01:25:01.877Z,14.03
2022-08-17T01:25:59.176Z,14.04
2022-08-17T01:27:57.140Z,14.02
2022-08-17T01:28:57.433Z,13.97
2022-08-17T01:30:00.153Z,13.94
2022-08-17T01:30:59.417Z,13.89
2022-08-17T01:32:00.334Z,13.83
2022-08-17T01:32:57.004Z,13.81
2022-08-17T01:33:59.707Z,13.82
2022-08-17T01:34:57.746Z,13.80
2022-08-17T01:35:56.980Z,13.79
2022-08-17T01:36:57.678Z,13.77
2022-08-17T01:37:56.870Z,13.82
2022-08-17T01:38:56.961Z,13.90
2022-08-17T01:40:03.348Z,13.98
2022-08-17T01:41:06.580Z,14.05
2022-08-17T01:42:04.815Z,14.12
2022-08-17T01:43:01.079Z,14.18
2022-08-17T01:44:03.151Z,14.25
2022-08-17T01:45:01.711Z,14.29
2022-08-17T01:46:03.480Z,14.31
2022-08-17T01:46:57.002Z,14.34
2022-08-17T01:47:57.172Z,14.40
2022-08-17T01:48:57.984Z,14.45
2022-08-17T01:49:56.876Z,14.47
2022-08-17T01:50:57.083Z,14.48
2022-08-17T01:51:57.613Z,14.51
2022-08-17T01:53:02.522Z,14.54
2022-08-17T01:54:57.036Z,14.52
2022-08-17T01:56:03.452Z,14.49
2022-08-17T01:56:56.905Z,14.44
2022-08-17T01:57:58.162Z,14.37
2022-08-17T01:58:57.876Z,14.30
2022-08-17T01:59:56.939Z,14.25
2022-08-17T02:01:00.720Z,14.23
2022-08-17T02:01:57.019Z,14.24
2022-08-17T02:02:57.235Z,14.26
2022-08-17T02:04:00.834Z,14.25
2022-08-17T02:04:56.860Z,14.19
2022-08-17T02:05:57.459Z,14.13
2022-08-17T02:06:56.882Z,14.09
2022-08-17T02:08:00.638Z,14.08
2022-08-17T02:10:56.932Z,14.09
2022-08-17T02:11:57.852Z,14.10
2022-08-17T02:12:57.102Z,14.11
2022-08-17T02:14:56.951Z,14.10
2022-08-17T02:15:57.674Z,14.07
2022-08-17T02:16:56.896Z,14.03
2022-08-17T02:17:56.969Z,13.99
2022-08-17T02:18:56.919Z,13.96
2022-08-17T02:19:57.117Z,13.97
2022-08-17T02:20:57.680Z,13.98
2022-08-17T02:21:56.967Z,14.01
2022-08-17T02:22:57.008Z,14.05
2022-08-17T02:23:57.638Z,14.07
2022-08-17T02:24:59.469Z,14.11
2022-08-17T02:25:59.947Z,14.15
2022-08-17T02:26:56.878Z,14.18
2022-08-17T02:27:56.971Z,14.20
2022-08-17T02:29:57.177Z,14.23
2022-08-17T02:31:01.156Z,14.27
2022-08-17T02:31:58.698Z,14.33
2022-08-17T02:32:57.394Z,14.37
2022-08-17T02:34:03.734Z,14.40
2022-08-17T02:34:58.127Z,14.44
2022-08-17T02:35:58.063Z,14.45
2022-08-17T02:37:57.084Z,14.42
2022-08-17T02:39:58.688Z,14.43
2022-08-17T02:40:58.611Z,14.44
2022-08-17T02:42:02.951Z,14.43
2022-08-17T02:42:57.603Z,14.41
2022-08-17T02:43:56.860Z,14.34
2022-08-17T02:44:56.988Z,14.27
2022-08-17T02:45:57.061Z,14.22
2022-08-17T02:46:57.062Z,14.17
2022-08-17T02:47:57.084Z,14.13
2022-08-17T02:48:57.016Z,14.12
2022-08-17T02:50:56.848Z,14.15
2022-08-17T02:51:58.762Z,14.16
2022-08-17T02:54:39.131Z,14.13
2022-08-17T02:54:56.863Z,14.11
2022-08-17T02:55:56.909Z,14.09
2022-08-17T02:56:56.918Z,14.04
2022-08-17T02:57:57.611Z,14.01
2022-08-17T02:58:56.903Z,13.99
2022-08-17T02:59:56.827Z,13.97
2022-08-17T03:00:56.832Z,13.96
2022-08-17T03:01:57.039Z,13.95
2022-08-17T03:02:58.204Z,13.93
2022-08-17T03:03:57.263Z,13.87
2022-08-17T03:04:56.894Z,13.81
2022-08-17T03:05:56.954Z,13.76
2022-08-17T03:06:56.854Z,13.74
2022-08-17T03:07:57.783Z,13.73
2022-08-17T03:08:57.192Z,13.74
2022-08-17T03:09:56.870Z,13.77
2022-08-17T03:10:57.079Z,13.80
2022-08-17T03:12:04.397Z,13.84
2022-08-17T03:12:57.017Z,13.88
2022-08-17T03:13:56.994Z,13.90
2022-08-17T03:14:56.830Z,13.89
2022-08-17T03:15:56.919Z,13.87
2022-08-17T03:17:57.607Z,13.86
2022-08-17T03:18:57.298Z,13.82
2022-08-17T03:19:56.935Z,13.75
2022-08-17T03:20:59.326Z,13.70
2022-08-17T03:21:58.255Z,13.64
2022-08-17T03:23:01.742Z,13.61
2022-08-17T03:24:56.975Z,13.63
2022-08-17T03:25:57.256Z,13.64
2022-08-17T03:27:57.489Z,13.62
2022-08-17T03:28:56.936Z,13.60
2022-08-17T03:29:56.801Z,13.57
2022-08-17T03:30:57.061Z,13.56
2022-08-17T03:31:56.832Z,13.55
2022-08-17T03:35:57.136Z,13.54
2022-08-17T03:36:56.825Z,13.52
2022-08-17T03:38:00.890Z,13.51
2022-08-17T03:38:56.899Z,13.47
2022-08-17T03:39:57.045Z,13.38
2022-08-17T03:40:59.712Z,13.29
2022-08-17T03:42:07.903Z,13.20
2022-08-17T03:42:57.727Z,13.12
2022-08-17T03:43:56.785Z,13.08
2022-08-17T03:44:58.679Z,13.07
2022-08-17T03:46:06.434Z,13.06
2022-08-17T03:48:06.145Z,13.07
2022-08-17T03:49:06.387Z,13.11
2022-08-17T03:50:06.134Z,13.14
2022-08-17T03:51:11.464Z,13.13
2022-08-17T03:52:07.795Z,13.08
2022-08-17T03:53:06.721Z,13.02
2022-08-17T03:54:08.001Z,12.98
2022-08-17T03:55:06.134Z,12.97
2022-08-17T03:57:06.722Z,12.96
2022-08-17T03:57:56.893Z,12.94
2022-08-17T03:58:56.795Z,12.92
2022-08-17T04:00:57.313Z,12.91
2022-08-17T04:02:00.013Z,12.93
2022-08-17T04:02:56.817Z,12.91
2022-08-17T04:05:56.906Z,12.92
2022-08-17T04:07:57.115Z,12.93
2022-08-17T04:08:56.835Z,12.94
2022-08-17T04:09:58.364Z,12.96
2022-08-17T04:11:57.458Z,12.97
2022-08-17T04:14:57.327Z,12.95
2022-08-17T04:16:56.745Z,12.96
2022-08-17T04:19:57.097Z,12.94
2022-08-17T04:20:57.237Z,12.93
2022-08-17T04:22:59.955Z,12.94
2022-08-17T04:24:57.299Z,12.97
2022-08-17T04:25:57.461Z,13.02
2022-08-17T04:26:56.787Z,13.06
2022-08-17T04:27:58.223Z,13.10
2022-08-17T04:28:57.026Z,13.13
2022-08-17T04:29:56.771Z,13.18
2022-08-17T04:30:56.905Z,13.25
2022-08-17T04:31:56.804Z,13.30
2022-08-17T04:33:10.963Z,13.33
2022-08-17T04:33:57.041Z,13.37
2022-08-17T04:34:56.749Z,13.39
2022-08-17T04:36:00.032Z,13.41
2022-08-17T04:36:56.759Z,13.44
2022-08-17T04:37:57.488Z,13.49
2022-08-17T04:38:58.292Z,13.54
2022-08-17T04:40:06.113Z,13.57
2022-08-17T04:41:07.287Z,13.58
2022-08-17T04:43:03.171Z,13.59
2022-08-17T04:43:58.683Z,13.58
2022-08-17T04:44:56.766Z,13.57
2022-08-17T04:45:59.345Z,13.56
2022-08-17T04:46:56.837Z,13.53
2022-08-17T04:47:56.810Z,13.49
2022-08-17T04:48:58.515Z,13.47
2022-08-17T04:49:56.828Z,13.46
2022-08-17T04:52:57.171Z,13.45
2022-08-17T04:54:00.451Z,13.43
2022-08-17T04:54:57.026Z,13.42
2022-08-17T04:55:59.233Z,13.38
2022-08-17T04:56:56.792Z,13.34
2022-08-17T04:57:57.021Z,13.31
2022-08-17T04:58:59.259Z,13.30
2022-08-17T04:59:56.822Z,13.28
2022-08-17T05:00:56.913Z,13.27
2022-08-17T05:01:56.801Z,13.26
2022-08-17T05:02:57.547Z,13.24
2022-08-17T05:03:59.696Z,13.23
2022-08-17T05:05:56.802Z,13.21
2022-08-17T05:06:56.765Z,13.20
2022-08-17T05:07:59.163Z,13.17
2022-08-17T05:08:58.072Z,13.13
2022-08-17T05:09:56.749Z,13.09
2022-08-17T05:10:56.776Z,13.04
2022-08-17T05:11:56.775Z,12.99
2022-08-17T05:13:01.629Z,12.96
2022-08-17T05:13:58.661Z,12.93
2022-08-17T05:14:56.789Z,12.90
2022-08-17T05:16:56.850Z,12.89
2022-08-17T05:17:57.029Z,12.88
2022-08-17T05:18:58.773Z,12.87
2022-08-17T05:19:56.732Z,12.86
2022-08-17T05:20:57.044Z,12.83
2022-08-17T05:21:56.740Z,12.81
2022-08-17T05:22:59.886Z,12.78
2022-08-17T05:23:58.711Z,12.76
2022-08-17T05:24:56.795Z,12.74
2022-08-17T05:25:58.429Z,12.71
2022-08-17T05:26:56.743Z,12.69
2022-08-17T05:27:57.880Z,12.67
2022-08-17T05:29:00.558Z,12.65
2022-08-17T05:29:56.785Z,12.63
2022-08-17T05:30:58.375Z,12.61
2022-08-17T05:31:56.974Z,12.58
2022-08-17T05:33:00.457Z,12.54
2022-08-17T05:33:57.071Z,12.51
2022-08-17T05:35:00.722Z,12.48
2022-08-17T05:35:58.728Z,12.46
2022-08-17T05:36:56.755Z,12.44
2022-08-17T05:37:57.287Z,12.41
2022-08-17T05:38:56.811Z,12.37
2022-08-17T05:39:56.828Z,12.34
2022-08-17T05:40:58.685Z,12.32
2022-08-17T05:41:56.753Z,12.29
2022-08-17T05:43:06.743Z,12.26
2022-08-17T05:43:56.839Z,12.22
2022-08-17T05:44:59.008Z,12.17
2022-08-17T05:46:03.802Z,12.13
2022-08-17T05:47:00.109Z,12.09
2022-08-17T05:47:56.793Z,12.04
2022-08-17T05:49:03.755Z,12.00
2022-08-17T05:49:57.198Z,11.96
2022-08-17T05:51:01.315Z,11.92
2022-08-17T05:52:14.013Z,11.89
2022-08-17T05:53:06.574Z,11.84
2022-08-17T05:54:02.052Z,11.80
2022-08-17T05:55:04.301Z,11.77
2022-08-17T05:56:11.615Z,11.73
2022-08-17T05:57:05.535Z,11.69
2022-08-17T05:58:10.720Z,11.65
2022-08-17T05:59:02.125Z,11.62
2022-08-17T06:00:11.036Z,11.59
2022-08-17T06:01:10.824Z,11.56
2022-08-17T06:02:08.820Z,11.52
2022-08-17T06:03:14.673Z,11.49
2022-08-17T06:04:02.015Z,11.46
2022-08-17T06:05:14.691Z,11.44
2022-08-17T06:06:01.943Z,11.40
2022-08-17T06:07:07.461Z,11.37
2022-08-17T06:08:03.268Z,11.34
2022-08-17T06:09:01.610Z,11.31
2022-08-17T06:10:08.899Z,11.28
2022-08-17T06:11:00.984Z,11.24
2022-08-17T06:12:08.922Z,11.20
2022-08-17T06:13:13.836Z,11.15
2022-08-17T06:14:11.406Z,11.08
2022-08-17T06:15:12.897Z,11.01
2022-08-17T06:16:34.183Z,10.96
2022-08-17T06:17:03.059Z,10.92
2022-08-17T06:18:08.415Z,10.88
2022-08-17T06:19:01.597Z,10.85
2022-08-17T06:20:00.417Z,10.83
2022-08-17T06:21:02.535Z,10.81
2022-08-17T06:21:58.693Z,10.78
2022-08-17T06:23:05.500Z,10.76
2022-08-17T06:24:07.337Z,10.74
2022-08-17T06:25:02.500Z,10.72
2022-08-17T06:26:04.784Z,10.69
2022-08-17T06:27:07.558Z,10.67
2022-08-17T06:28:02.694Z,10.66
2022-08-17T06:29:02.982Z,10.64
2022-08-17T06:31:01.400Z,10.63
2022-08-17T06:32:59.990Z,10.62
2022-08-17T06:33:58.531Z,10.60
2022-08-17T06:34:58.040Z,10.57
2022-08-17T06:36:02.820Z,10.53
2022-08-17T06:37:09.525Z,10.48
2022-08-17T06:38:09.372Z,10.44
2022-08-17T06:39:05.133Z,10.41
2022-08-17T06:40:11.246Z,10.38
2022-08-17T06:41:02.436Z,10.37
2022-08-17T06:42:06.600Z,10.35
2022-08-17T06:43:12.761Z,10.33
2022-08-17T06:44:08.443Z,10.29
2022-08-17T06:45:08.323Z,10.25
2022-08-17T06:46:11.848Z,10.19
2022-08-17T06:47:04.021Z,10.13
2022-08-17T06:48:00.940Z,10.06
2022-08-17T06:49:08.076Z,9.99
2022-08-17T06:50:01.269Z,9.92
2022-08-17T06:51:04.296Z,9.84
2022-08-17T06:52:03.044Z,9.79
2022-08-17T06:53:04.121Z,9.73
2022-08-17T06:54:05.871Z,9.69
2022-08-17T06:55:00.463Z,9.65
2022-08-17T06:56:05.057Z,9.62
2022-08-17T06:57:10.602Z,9.60
2022-08-17T06:58:15.822Z,9.57
2022-08-17T06:58:59.322Z,9.55
2022-08-17T07:00:07.764Z,9.52
2022-08-17T07:00:59.810Z,9.51
2022-08-17T07:01:57.145Z,9.50
2022-08-17T07:06:03.885Z,9.51
2022-08-17T07:07:11.934Z,9.49
2022-08-17T07:08:03.588Z,9.47
2022-08-17T07:09:01.876Z,9.45
2022-08-17T07:10:00.785Z,9.44
2022-08-17T07:13:09.467Z,9.45
2022-08-17T07:15:11.390Z,9.46
2022-08-17T07:16:06.836Z,9.47
2022-08-17T07:16:59.554Z,9.48
2022-08-17T07:18:59.518Z,9.45
2022-08-17T07:20:06.403Z,9.41
2022-08-17T07:21:08.534Z,9.38
2022-08-17T07:22:14.156Z,9.34
2022-08-17T07:23:04.764Z,9.31
2022-08-17T07:24:26.219Z,9.28
2022-08-17T07:24:59.793Z,9.25
2022-08-17T07:26:07.016Z,9.21
2022-08-17T07:27:09.519Z,9.18
2022-08-17T07:28:00.910Z,9.14
2022-08-17T07:28:57.173Z,9.11
2022-08-17T07:30:08.143Z,9.07
2022-08-17T07:30:56.718Z,9.03
2022-08-17T07:31:57.574Z,8.99
2022-08-17T07:33:01.786Z,8.96
2022-08-17T07:34:14.569Z,8.93
2022-08-17T07:35:10.737Z,8.90
2022-08-17T07:35:59.470Z,8.87
2022-08-17T07:37:05.353Z,8.83
2022-08-17T07:38:05.293Z,8.81
2022-08-17T07:38:58.508Z,8.78
2022-08-17T07:40:15.235Z,8.77
2022-08-17T07:42:03.738Z,8.76
2022-08-17T07:43:57.757Z,8.74
2022-08-17T07:44:58.129Z,8.72
2022-08-17T07:46:22.653Z,8.69
2022-08-17T07:47:06.774Z,8.64
2022-08-17T07:48:06.078Z,8.59
2022-08-17T07:49:07.718Z,8.55
2022-08-17T07:49:56.745Z,8.51
2022-08-17T07:51:00.345Z,8.47
2022-08-17T07:52:47.318Z,8.43
2022-08-17T07:52:56.785Z,8.40
2022-08-17T07:54:14.085Z,8.38
2022-08-17T07:54:56.919Z,8.37
2022-08-17T07:55:56.725Z,8.35
2022-08-17T07:57:00.160Z,8.33
2022-08-17T07:57:59.046Z,8.31
2022-08-17T07:59:14.602Z,8.30
2022-08-17T08:01:05.266Z,8.31
2022-08-17T08:02:14.997Z,8.30
2022-08-17T08:03:58.303Z,8.29
2022-08-17T08:05:06.652Z,8.27
2022-08-17T08:06:02.118Z,8.25
2022-08-17T08:07:01.528Z,8.22
2022-08-17T08:08:00.243Z,8.21
2022-08-17T08:09:00.676Z,8.19
2022-08-17T08:10:06.353Z,8.16
2022-08-17T08:11:08.231Z,8.14
2022-08-17T08:11:56.820Z,8.13
2022-08-17T08:13:05.950Z,8.10
2022-08-17T08:13:58.617Z,8.07
2022-08-17T08:15:00.807Z,8.04
2022-08-17T08:16:07.201Z,8.03
2022-08-17T08:16:59.335Z,8.01
2022-08-17T08:17:59.765Z,7.98
2022-08-17T08:18:59.765Z,7.97
2022-08-17T08:21:02.838Z,7.96
2022-08-17T08:22:11.713Z,7.95
2022-08-17T08:23:11.563Z,7.96
2022-08-17T08:24:09.865Z,7.94
2022-08-17T08:25:07.482Z,7.90
2022-08-17T08:26:01.276Z,7.85
2022-08-17T08:27:12.940Z,7.81
2022-08-17T08:28:05.335Z,7.78
2022-08-17T08:29:01.534Z,7.77
2022-08-17T08:30:05.157Z,7.75
2022-08-17T08:31:14.613Z,7.74
2022-08-17T08:34:58.959Z,7.75
2022-08-17T08:35:06.867Z,7.76
2022-08-17T08:38:10.805Z,7.75
2022-08-17T08:40:02.031Z,7.76
2022-08-17T08:42:09.794Z,7.79
2022-08-17T08:43:12.760Z,7.82
2022-08-17T08:44:08.803Z,7.84
2022-08-17T08:45:04.396Z,7.87
2022-08-17T08:46:05.662Z,7.89
2022-08-17T08:47:00.483Z,7.91
2022-08-17T08:48:52.910Z,7.93
2022-08-17T08:49:12.172Z,7.95
2022-08-17T08:50:37.666Z,7.97
2022-08-17T08:51:00.559Z,7.98
2022-08-17T08:51:58.990Z,7.99
2022-08-17T08:53:12.965Z,8.00
2022-08-17T08:54:05.448Z,8.01
2022-08-17T08:55:09.211Z,8.03
2022-08-17T08:56:03.627Z,8.06
2022-08-17T08:57:24.289Z,8.08
2022-08-17T08:58:06.624Z,8.10
2022-08-17T08:59:07.401Z,8.13
2022-08-17T09:00:14.851Z,8.16
2022-08-17T09:00:59.265Z,8.18
2022-08-17T09:02:04.129Z,8.21
2022-08-17T09:03:14.620Z,8.24
2022-08-17T09:04:21.761Z,8.27
2022-08-17T09:05:14.680Z,8.29
2022-08-17T09:06:37.785Z,8.30
2022-08-17T09:07:03.201Z,8.31
2022-08-17T09:08:04.653Z,8.33
2022-08-17T09:10:09.225Z,8.34
2022-08-17T09:12:03.917Z,8.35
2022-08-17T09:14:07.507Z,8.36
2022-08-17T09:15:10.863Z,8.37
2022-08-17T09:16:07.808Z,8.38
2022-08-17T09:17:06.499Z,8.40
2022-08-17T09:18:59.112Z,8.41
2022-08-17T09:19:08.713Z,8.42
2022-08-17T09:20:04.857Z,8.43
2022-08-17T09:21:01.898Z,8.44
2022-08-17T09:22:02.723Z,8.45
2022-08-17T09:23:04.101Z,8.46
2022-08-17T09:24:07.125Z,8.47
2022-08-17T09:25:01.081Z,8.48
2022-08-17T09:29:04.054Z,8.49
2022-08-17T09:30:05.011Z,8.48
2022-08-17T09:31:03.531Z,8.49
2022-08-17T09:31:59.784Z,8.48
2022-08-17T09:33:59.792Z,8.47
2022-08-17T09:35:10.659Z,8.46
2022-08-17T09:38:11.185Z,8.45
2022-08-17T09:40:08.597Z,8.44
2022-08-17T09:41:08.079Z,8.45
2022-08-17T09:46:01.965Z,8.46
2022-08-17T09:48:00.039Z,8.47
2022-08-17T09:49:07.346Z,8.48
2022-08-17T09:54:14.737Z,8.47
2022-08-17T09:55:00.194Z,8.48
2022-08-17T09:56:13.645Z,8.47
2022-08-17T09:57:29.195Z,8.46
2022-08-17T09:58:05.356Z,8.43
2022-08-17T09:59:17.099Z,8.41
2022-08-17T10:00:17.402Z,8.38
2022-08-17T10:01:03.690Z,8.35
2022-08-17T10:02:11.663Z,8.31
2022-08-17T10:03:16.279Z,8.27
2022-08-17T10:04:11.514Z,8.23
2022-08-17T10:05:12.158Z,8.18
2022-08-17T10:06:00.182Z,8.15
2022-08-17T10:07:05.773Z,8.12
2022-08-17T10:08:09.473Z,8.09
2022-08-17T10:09:07.560Z,8.07
2022-08-17T10:09:59.653Z,8.04
2022-08-17T10:11:06.678Z,8.01
2022-08-17T10:12:17.743Z,7.99
2022-08-17T10:13:00.914Z,7.97
2022-08-17T10:14:03.419Z,7.96
2022-08-17T10:15:07.976Z,7.94
2022-08-17T10:16:08.280Z,7.92
2022-08-17T10:17:11.378Z,7.91
2022-08-17T10:18:14.549Z,7.90
2022-08-17T10:19:14.011Z,7.89
2022-08-17T10:21:18.647Z,7.88
2022-08-17T10:22:32.625Z,7.87
2022-08-17T10:23:16.671Z,7.86
2022-08-17T10:24:11.087Z,7.83
2022-08-17T10:25:22.449Z,7.80
2022-08-17T10:26:15.499Z,7.76
2022-08-17T10:27:00.896Z,7.74
2022-08-17T10:28:01.907Z,7.71
2022-08-17T10:29:03.050Z,7.69
2022-08-17T10:30:01.691Z,7.67
2022-08-17T10:31:30.996Z,7.65
2022-08-17T10:32:03.681Z,7.63
2022-08-17T10:33:01.648Z,7.61
2022-08-17T10:34:13.094Z,7.59
2022-08-17T10:35:04.235Z,7.56
2022-08-17T10:36:11.338Z,7.54
2022-08-17T10:37:11.815Z,7.52
2022-08-17T10:38:15.510Z,7.49
2022-08-17T10:39:10.470Z,7.47
2022-08-17T10:40:12.352Z,7.46
2022-08-17T10:41:07.822Z,7.44
2022-08-17T10:42:00.859Z,7.42
2022-08-17T10:43:02.856Z,7.41
2022-08-17T10:44:39.280Z,7.40
2022-08-17T10:48:06.358Z,7.39
2022-08-17T10:49:14.474Z,7.35
2022-08-17T10:49:57.762Z,7.31
2022-08-17T10:51:07.800Z,7.29
2022-08-17T10:51:59.057Z,7.26
2022-08-17T10:52:56.541Z,7.24
2022-08-17T10:53:59.063Z,7.23
2022-08-17T10:56:58.982Z,7.24
2022-08-17T10:58:14.744Z,7.25
2022-08-17T11:02:05.256Z,7.27
2022-08-17T11:04:01.399Z,7.28
2022-08-17T11:06:12.809Z,7.27
2022-08-17T11:07:12.008Z,7.26
2022-08-17T11:08:14.365Z,7.24
2022-08-17T11:09:05.207Z,7.22
2022-08-17T11:10:13.688Z,7.19
2022-08-17T11:11:06.961Z,7.18
2022-08-17T11:12:06.945Z,7.16
2022-08-17T11:13:09.407Z,7.15
2022-08-17T11:14:06.335Z,7.13
2022-08-17T11:15:12.414Z,7.11
2022-08-17T11:16:09.666Z,7.10
2022-08-17T11:17:14.764Z,7.08
2022-08-17T11:18:05.438Z,7.07
2022-08-17T11:19:14.570Z,7.05
2022-08-17T11:20:09.151Z,7.02
2022-08-17T11:21:05.109Z,7.00
2022-08-17T11:22:09.143Z,6.97
2022-08-17T11:23:14.854Z,6.95
2022-08-17T11:24:13.152Z,6.94
2022-08-17T11:25:07.759Z,6.92
2022-08-17T11:26:04.084Z,6.93
2022-08-17T11:28:07.193Z,6.94
2022-08-17T11:30:02.765Z,6.95
2022-08-17T11:36:12.677Z,6.94
2022-08-17T11:38:03.184Z,6.93
2022-08-17T11:40:13.705Z,6.92
2022-08-17T11:42:06.072Z,6.90
2022-08-17T11:43:07.681Z,6.91
2022-08-17T11:44:12.565Z,6.92
2022-08-17T11:44:58.391Z,6.93
2022-08-17T11:46:12.134Z,6.94
2022-08-17T11:47:23.516Z,6.95
2022-08-17T11:50:27.112Z,6.94
2022-08-17T11:51:18.635Z,6.95
2022-08-17T11:52:05.374Z,6.96
2022-08-17T11:52:56.720Z,6.97
2022-08-17T11:54:30.570Z,6.98
2022-08-17T11:56:06.278Z,6.99
2022-08-17T11:56:58.410Z,6.98
2022-08-17T12:00:58.531Z,6.97
2022-08-17T12:03:14.467Z,6.96
2022-08-17T12:04:07.109Z,6.94
2022-08-17T12:06:04.101Z,6.91
2022-08-17T12:07:09.323Z,6.88
2022-08-17T12:08:07.213Z,6.85
2022-08-17T12:09:02.932Z,6.84
2022-08-17T12:09:57.546Z,6.83
2022-08-17T12:12:57.153Z,6.84
2022-08-17T12:13:59.536Z,6.85
2022-08-17T12:15:10.122Z,6.86
2022-08-17T12:15:58.123Z,6.87
2022-08-17T12:18:59.722Z,6.86
2022-08-17T12:21:15.567Z,6.87
2022-08-17T12:22:04.318Z,6.88
2022-08-17T12:26:01.819Z,6.86
2022-08-17T12:26:59.585Z,6.84
2022-08-17T12:28:06.895Z,6.83
2022-08-17T12:29:01.129Z,6.81
2022-08-17T12:29:56.787Z,6.79
2022-08-17T12:31:12.482Z,6.77
2022-08-17T12:31:56.640Z,6.76
2022-08-17T12:32:57.289Z,6.75
2022-08-17T12:34:57.268Z,6.74
2022-08-17T12:36:00.780Z,6.75
2022-08-17T12:37:02.117Z,6.76
2022-08-17T12:39:12.926Z,6.77
2022-08-17T12:40:01.561Z,6.78
2022-08-17T12:42:02.357Z,6.79
2022-08-17T12:43:01.208Z,6.82
2022-08-17T12:44:56.905Z,6.84
2022-08-17T12:45:59.622Z,6.85
2022-08-17T12:48:07.958Z,6.86
2022-08-17T12:49:14.384Z,6.88
2022-08-17T12:51:02.560Z,6.89
2022-08-17T12:53:01.788Z,6.90
2022-08-17T12:54:59.813Z,6.91
2022-08-17T12:56:57.660Z,6.93
2022-08-17T12:58:56.852Z,6.92
2022-08-17T13:00:02.265Z,6.93
2022-08-17T13:01:02.681Z,6.95
2022-08-17T13:01:56.886Z,6.96
2022-08-17T13:03:00.621Z,6.97
2022-08-17T13:04:00.314Z,6.98
2022-08-17T13:04:59.229Z,6.99
2022-08-17T13:07:59.012Z,7.00
2022-08-17T13:12:00.466Z,7.01
2022-08-17T13:12:57.090Z,7.00
2022-08-17T13:14:57.708Z,7.01
2022-08-17T13:16:00.117Z,7.02
2022-08-17T13:17:00.023Z,7.04
2022-08-17T13:18:08.099Z,7.05
2022-08-17T13:19:06.060Z,7.07
2022-08-17T13:19:56.622Z,7.08
2022-08-17T13:20:59.884Z,7.09
2022-08-17T13:22:00.109Z,7.10
2022-08-17T13:24:01.570Z,7.11
2022-08-17T13:25:58.452Z,7.12
2022-08-17T13:31:14.396Z,7.13
2022-08-17T13:35:12.900Z,7.12
2022-08-17T13:38:01.617Z,7.13
2022-08-17T13:39:14.418Z,7.14
2022-08-17T13:40:00.080Z,7.16
2022-08-17T13:40:56.401Z,7.17
2022-08-17T13:41:56.437Z,7.16
2022-08-17T13:42:57.988Z,7.15
2022-08-17T13:43:56.444Z,7.14
2022-08-17T13:44:56.490Z,7.11
2022-08-17T13:46:10.117Z,7.10
2022-08-17T13:46:57.308Z,7.08
2022-08-17T13:49:05.775Z,7.09
2022-08-17T13:54:01.549Z,7.10
2022-08-17T14:05:56.539Z,7.11
2022-08-17T14:06:59.003Z,7.12
2022-08-17T14:07:59.003Z,7.13
2022-08-17T14:08:57.228Z,7.14
2022-08-17T14:10:59.542Z,7.16
2022-08-17T14:12:56.911Z,7.15
2022-08-17T14:13:56.345Z,7.16
2022-08-17T14:14:57.149Z,7.17
2022-08-17T14:15:56.890Z,7.19
2022-08-17T14:16:57.675Z,7.20
2022-08-17T14:17:56.704Z,7.21
2022-08-17T14:18:57.535Z,7.23
2022-08-17T14:19:56.599Z,7.24
2022-08-17T14:21:59.047Z,7.25
2022-08-17T14:24:56.576Z,7.24
2022-08-17T14:29:58.193Z,7.23
2022-08-17T14:30:56.439Z,7.24
2022-08-17T14:32:56.701Z,7.22
2022-08-17T14:33:56.426Z,7.21
2022-08-17T14:34:57.861Z,7.16
2022-08-17T14:35:57.755Z,7.11
2022-08-17T14:36:57.153Z,7.06
2022-08-17T14:37:57.486Z,7.03
2022-08-17T14:38:56.568Z,7.02
2022-08-17T14:40:56.812Z,7.01
2022-08-17T14:42:58.067Z,7.02
2022-08-17T14:43:56.357Z,7.03
2022-08-17T14:44:58.794Z,7.04
2022-08-17T14:45:56.348Z,7.06
2022-08-17T14:46:56.633Z,7.07
2022-08-17T14:47:56.369Z,7.08
2022-08-17T14:48:57.497Z,7.09
2022-08-17T14:49:56.326Z,7.10
2022-08-17T14:54:57.203Z,7.09
2022-08-17T14:57:04.663Z,7.08
2022-08-17T14:57:56.345Z,7.07
2022-08-17T14:58:56.575Z,7.06
2022-08-17T15:05:02.051Z,7.07
2022-08-17T15:07:56.332Z,7.08
2022-08-17T15:08:56.348Z,7.09
2022-08-17T15:09:56.853Z,7.10
2022-08-17T15:10:56.345Z,7.11
2022-08-17T15:11:56.848Z,7.12
2022-08-17T15:13:56.314Z,7.13
2022-08-17T15:15:56.952Z,7.11
2022-08-17T15:16:56.521Z,7.09
2022-08-17T15:17:56.894Z,7.07
2022-08-17T15:18:56.287Z,7.05
2022-08-17T15:21:56.356Z,7.06
2022-08-17T15:23:56.367Z,7.07
2022-08-17T15:25:56.420Z,7.08
2022-08-17T15:26:56.462Z,7.09
2022-08-17T15:27:56.396Z,7.10
2022-08-17T15:28:57.446Z,7.11
2022-08-17T15:29:56.607Z,7.12
2022-08-17T15:32:00.458Z,7.13
2022-08-17T15:32:59.499Z,7.12
2022-08-17T15:36:56.393Z,7.11
2022-08-17T15:46:01.916Z,7.12
2022-08-17T15:46:56.308Z,7.13
2022-08-17T15:48:59.056Z,7.14
2022-08-17T15:50:00.018Z,7.15
2022-08-17T15:52:59.233Z,7.17
2022-08-17T15:53:59.770Z,7.18
2022-08-17T15:54:59.896Z,7.20
2022-08-17T15:55:56.269Z,7.21
2022-08-17T15:56:56.349Z,7.23
2022-08-17T15:57:56.306Z,7.26
2022-08-17T15:58:56.494Z,7.29
2022-08-17T15:59:58.524Z,7.30
2022-08-17T16:01:14.853Z,7.32
2022-08-17T16:03:13.702Z,7.34
2022-08-17T16:03:44.641Z,7.36
2022-08-17T16:04:04.318Z,7.37
2022-08-17T16:05:56.521Z,7.39
2022-08-17T16:09:56.679Z,7.38
2022-08-17T16:11:56.658Z,7.37
2022-08-17T16:16:56.310Z,7.38
2022-08-17T16:18:58.726Z,7.37
2022-08-17T16:21:56.363Z,7.35
2022-08-17T16:22:56.302Z,7.33
2022-08-17T16:24:01.502Z,7.32
2022-08-17T16:24:57.422Z,7.31
2022-08-17T16:25:56.267Z,7.30
2022-08-17T16:26:56.971Z,7.29
2022-08-17T16:27:56.393Z,7.28
2022-08-17T16:28:57.232Z,7.26
2022-08-17T16:29:56.397Z,7.25
2022-08-17T16:30:56.321Z,7.24
2022-08-17T16:32:57.972Z,7.25
2022-08-17T16:34:15.833Z,7.27
2022-08-17T16:34:56.409Z,7.26
2022-08-17T16:35:56.240Z,7.28
2022-08-17T16:39:56.327Z,7.29
2022-08-17T16:40:56.241Z,7.28
2022-08-17T16:41:56.726Z,7.29
2022-08-17T16:42:57.692Z,7.31
2022-08-17T16:44:57.985Z,7.32
2022-08-17T16:45:56.652Z,7.33
2022-08-17T16:46:57.537Z,7.34
2022-08-17T16:47:59.244Z,7.35
2022-08-17T16:51:00.324Z,7.34
2022-08-17T16:56:56.383Z,7.35
2022-08-17T17:00:59.865Z,7.36